createdAt,value
2022-10-11T16:01:59.235Z,21.80
2022-10-11T16:03:31.521Z,19.80
2022-10-11T16:05:03.359Z,20.00
2022-10-11T16:06:35.020Z,21.80
2022-10-11T16:08:06.863Z,55.80
2022-10-11T16:09:38.618Z,27.00
2022-10-11T16:11:11.346Z,31.40
2022-10-11T16:12:43.022Z,36.40
2022-10-11T16:14:14.710Z,49.20
2022-10-11T16:15:46.812Z,51.40
2022-10-11T16:17:18.588Z,64.80
2022-10-11T16:18:50.757Z,70.00
2022-10-11T16:20:24.650Z,74.75
2022-10-11T16:21:56.422Z,79.00
2022-10-11T16:23:28.107Z,87.50
2022-10-11T16:25:00.772Z,93.50
2022-10-11T16:26:32.569Z,91.50
2022-10-11T16:28:04.428Z,94.50
2022-10-11T16:29:36.791Z,96.00
2022-10-11T16:31:13.275Z,94.75
2022-10-11T16:32:45.150Z,109.00
2022-10-11T16:34:17.016Z,107.80
2022-10-11T16:35:48.780Z,104.60
2022-10-11T16:37:20.434Z,124.50
2022-10-11T16:38:52.150Z,139.00
2022-10-11T16:40:26.018Z,147.75
2022-10-11T16:41:57.703Z,159.75
2022-10-11T16:43:29.438Z,146.75
2022-10-11T16:45:01.208Z,154.00
2022-10-11T16:46:33.175Z,146.75
2022-10-11T16:50:06.783Z,157.00
2022-10-11T16:51:38.493Z,154.50
2022-10-11T16:53:10.157Z,148.00
2022-10-11T16:54:48.150Z,157.75
2022-10-11T16:56:22.512Z,148.00
2022-10-11T16:57:54.291Z,166.50
2022-10-11T16:59:25.976Z,168.00
2022-10-11T17:00:57.722Z,155.75
2022-10-11T17:02:32.475Z,152.75
2022-10-11T17:04:04.588Z,159.50
2022-10-11T17:05:36.772Z,165.25
2022-10-11T17:07:12.395Z,162.50
2022-10-11T17:08:44.087Z,170.50
2022-10-11T17:10:15.762Z,152.50
2022-10-11T17:11:47.437Z,163.25
2022-10-11T17:13:19.122Z,164.75
2022-10-11T17:14:50.991Z,147.50
2022-10-11T17:16:22.802Z,160.25
2022-10-11T17:17:55.740Z,153.25
2022-10-11T17:19:27.483Z,162.50
2022-10-11T17:21:06.868Z,162.00
2022-10-11T17:22:38.638Z,158.00
2022-10-11T17:24:10.381Z,161.50
2022-10-11T17:25:43.225Z,156.25
2022-10-11T17:27:14.924Z,137.00
2022-10-11T17:28:46.845Z,139.00
2022-10-11T17:30:18.689Z,147.75
2022-10-11T17:31:50.380Z,156.75
2022-10-11T17:33:22.100Z,138.50
2022-10-11T17:34:53.928Z,150.00
2022-10-11T17:36:31.871Z,170.25
2022-10-11T17:38:06.101Z,165.25
2022-10-11T17:39:38.221Z,154.25
2022-10-11T17:41:10.058Z,137.00
2022-10-11T17:42:41.774Z,127.00
2022-10-11T17:44:13.587Z,129.60
2022-10-11T17:45:54.686Z,113.75
2022-10-11T17:47:26.404Z,128.60
2022-10-11T17:48:58.576Z,113.20
2022-10-11T17:50:30.962Z,111.20
2022-10-11T17:52:02.796Z,108.20
2022-10-11T17:53:34.510Z,101.40
2022-10-11T17:55:06.366Z,107.00
2022-10-11T17:56:38.361Z,130.00
2022-10-11T17:58:10.485Z,141.25
2022-10-11T17:59:42.137Z,135.25
2022-10-11T18:01:15.881Z,135.00
2022-10-11T18:02:47.642Z,122.00
2022-10-11T18:04:20.144Z,120.25
2022-10-11T18:05:51.843Z,146.25
2022-10-11T18:07:24.216Z,147.00
2022-10-11T18:08:57.220Z,142.00
2022-10-11T18:10:29.765Z,127.50
2022-10-11T18:12:01.794Z,139.00
2022-10-11T18:13:33.451Z,141.75
2022-10-11T18:15:05.486Z,151.75
2022-10-11T18:16:37.457Z,169.00
2022-10-11T18:18:11.687Z,188.25
2022-10-11T18:19:43.354Z,178.00
2022-10-11T18:21:16.151Z,168.25
2022-10-11T18:22:47.812Z,178.75
2022-10-11T18:24:19.459Z,181.00
2022-10-11T18:25:51.126Z,187.00
2022-10-11T18:27:22.875Z,190.75
2022-10-11T18:28:54.722Z,182.00
2022-10-11T18:30:26.442Z,177.00
2022-10-11T18:31:58.131Z,192.50
2022-10-11T18:33:29.866Z,174.25
2022-10-11T18:35:01.621Z,169.75
2022-10-11T18:36:33.431Z,186.75
2022-10-11T18:38:05.209Z,215.33
2022-10-11T18:39:36.860Z,205.25
2022-10-11T18:41:09.851Z,178.75
2022-10-11T18:42:41.550Z,207.75
2022-10-11T18:44:14.665Z,203.25
2022-10-11T18:45:46.344Z,189.25
2022-10-11T18:47:18.217Z,276.50
2022-10-11T18:48:50.983Z,195.50
2022-10-11T18:50:22.705Z,202.00
2022-10-11T18:51:54.356Z,210.75
2022-10-11T18:53:26.081Z,195.75
2022-10-11T18:54:58.595Z,199.00
2022-10-11T18:56:31.162Z,201.00
2022-10-11T18:58:02.997Z,193.50
2022-10-11T18:59:34.867Z,204.25
2022-10-11T19:01:16.066Z,206.50
2022-10-11T19:02:47.861Z,196.75
2022-10-11T19:04:19.694Z,194.75
2022-10-11T19:05:51.431Z,183.75
2022-10-11T19:07:23.757Z,198.50
2022-10-11T19:08:59.286Z,191.75
2022-10-11T19:10:31.823Z,187.25
2022-10-11T19:12:04.486Z,175.00
2022-10-11T19:13:36.159Z,267.00
2022-10-11T19:15:08.362Z,245.00
2022-10-11T19:16:42.239Z,231.33
2022-10-11T19:18:15.956Z,222.00
2022-10-11T19:19:51.450Z,213.67
2022-10-11T19:21:23.281Z,201.50
2022-10-11T19:22:54.955Z,197.00
2022-10-11T19:24:27.957Z,201.25
2022-10-11T19:26:02.025Z,188.50
2022-10-11T19:27:34.900Z,174.25
2022-10-11T19:29:14.975Z,161.00
2022-10-11T19:30:47.065Z,176.75
2022-10-11T19:32:20.293Z,153.75
2022-10-11T19:33:52.125Z,133.75
2022-10-11T19:35:24.826Z,136.50
2022-10-11T19:36:56.676Z,135.00
2022-10-11T19:38:32.018Z,120.75
2022-10-11T19:40:04.081Z,112.40
2022-10-11T19:41:35.758Z,112.40
2022-10-11T19:43:07.493Z,109.00
2022-10-11T19:44:39.623Z,107.00
2022-10-11T19:46:27.337Z,82.25
2022-10-11T19:48:08.262Z,83.50
2022-10-11T19:49:40.304Z,92.25
2022-10-11T19:51:19.770Z,80.00
2022-10-11T19:52:51.809Z,79.25
2022-10-11T19:54:25.373Z,79.75
2022-10-11T19:56:02.364Z,81.50
2022-10-11T19:57:34.866Z,80.25
2022-10-11T19:59:07.140Z,70.75
2022-10-11T20:00:38.994Z,74.25
2022-10-11T20:02:11.992Z,77.50
2022-10-11T20:03:44.359Z,112.00
2022-10-11T20:05:16.110Z,105.00
2022-10-11T20:06:49.692Z,114.80
2022-10-11T20:08:23.344Z,114.80
2022-10-11T20:09:55.193Z,123.00
2022-10-11T20:11:27.006Z,106.50
2022-10-11T20:12:58.653Z,104.75
2022-10-11T20:14:30.345Z,116.40
2022-10-11T20:16:07.255Z,109.50
2022-10-11T20:17:48.282Z,107.50
2022-10-11T20:19:21.482Z,103.40
2022-10-11T20:21:15.306Z,99.25
2022-10-11T20:22:47.068Z,102.40
2022-10-11T20:24:18.755Z,113.40
2022-10-11T20:26:06.956Z,103.40
2022-10-11T20:27:42.418Z,112.20
2022-10-11T20:29:14.131Z,131.40
2022-10-11T20:30:45.968Z,143.50
2022-10-11T20:32:17.980Z,148.50
2022-10-11T20:33:49.662Z,139.00
2022-10-11T20:35:21.428Z,144.00
2022-10-11T20:36:53.650Z,153.75
2022-10-11T20:38:25.371Z,155.75
2022-10-11T20:39:57.207Z,137.75
2022-10-11T20:41:33.710Z,142.50
2022-10-11T20:43:05.433Z,137.50
2022-10-11T20:44:37.135Z,158.50
2022-10-11T20:46:10.955Z,161.00
2022-10-11T20:47:42.629Z,190.75
2022-10-11T20:49:14.431Z,189.75
2022-10-11T20:50:46.057Z,206.75
2022-10-11T20:52:17.774Z,196.00
2022-10-11T20:53:49.592Z,191.50
2022-10-11T20:55:21.344Z,203.75
2022-10-11T20:56:53.058Z,182.00
2022-10-11T20:58:25.845Z,196.75
2022-10-11T20:59:57.547Z,194.75
2022-10-11T21:01:31.239Z,182.25
2022-10-11T21:03:03.019Z,196.75
2022-10-11T21:04:34.795Z,197.75
2022-10-11T21:06:06.663Z,198.50
2022-10-11T21:07:38.432Z,198.25
2022-10-11T21:09:12.565Z,197.50
2022-10-11T21:10:56.260Z,192.00
2022-10-11T21:12:27.967Z,197.50
2022-10-11T21:14:01.373Z,211.33
2022-10-11T21:15:33.221Z,212.67
2022-10-11T21:17:04.967Z,226.33
2022-10-11T21:18:36.742Z,233.67
2022-10-11T21:20:08.942Z,227.33
2022-10-11T21:21:40.589Z,216.67
2022-10-11T21:23:13.691Z,222.00
2022-10-11T21:24:45.399Z,224.00
2022-10-11T21:26:18.392Z,212.33
2022-10-11T21:27:50.139Z,220.67
2022-10-11T21:29:21.847Z,207.33
2022-10-11T21:30:53.555Z,206.25
2022-10-11T21:32:25.345Z,216.00
2022-10-11T21:33:57.104Z,210.00
2022-10-11T21:35:29.261Z,210.50
2022-10-11T21:37:00.932Z,189.75
2022-10-11T21:38:32.766Z,212.25
2022-10-11T21:40:04.848Z,196.50
2022-10-11T21:41:36.535Z,194.25
2022-10-11T21:43:08.287Z,176.50
2022-10-11T21:44:43.105Z,184.00
2022-10-11T21:46:23.749Z,198.75
2022-10-11T21:47:56.695Z,166.00
2022-10-11T21:49:28.476Z,171.50
2022-10-11T21:51:00.227Z,160.75
2022-10-11T21:52:32.196Z,156.50
2022-10-11T21:54:05.251Z,166.75
2022-10-11T21:55:37.197Z,174.75
2022-10-11T21:57:09.022Z,162.25
2022-10-11T21:58:41.242Z,149.75
2022-10-11T22:00:13.755Z,155.50
2022-10-11T22:01:48.670Z,158.25
2022-10-11T22:03:20.583Z,159.50
2022-10-11T22:04:52.227Z,145.25
2022-10-11T22:06:24.052Z,147.25
2022-10-11T22:07:55.825Z,137.25
2022-10-11T22:09:29.719Z,141.50
2022-10-11T22:11:01.608Z,134.50
2022-10-11T22:12:33.566Z,165.75
2022-10-11T22:14:05.544Z,123.25
2022-10-11T22:15:37.356Z,115.00
2022-10-11T22:17:09.142Z,122.40
2022-10-11T22:18:41.410Z,119.80
2022-10-11T22:20:13.111Z,115.20
2022-10-11T22:21:45.419Z,116.60
2022-10-11T22:23:18.220Z,139.50
2022-10-11T22:24:49.927Z,124.40
2022-10-11T22:26:23.492Z,106.60
2022-10-11T22:27:55.150Z,113.00
2022-10-11T22:29:30.499Z,100.00
2022-10-11T22:31:05.642Z,101.50
2022-10-11T22:32:37.622Z,87.00
2022-10-11T22:34:09.474Z,86.00
